This is the latest recevied weather packets stored in our database for station/object WB4ZUT. If no packets are shown the sender has not sent any weather packets the latest 1 day(s).
| Time | Temp. | Humidity | Pressure | Rain* | Wind** | Luminosity | Snow |
|---|---|---|---|---|---|---|---|
| 1778039153 | 10° C | 99% | 1008.8 hPa | 1.78 mm | 2.24 m/s, 359° | 0 W/m² | - |
| 1778038850 | 10° C | 99% | 1008.5 hPa | 0 mm | 0.45 m/s, 199° | 0 W/m² | - |
| 1778038547 | 10° C | 99% | 1008.7 hPa | 0 mm | 0.45 m/s, 39° | 0 W/m² | - |
| 1778038244 | 10° C | 99% | 1008.7 hPa | 0 mm | 0 m/s | 0 W/m² | - |
| 1778037942 | 10° C | 99% | 1008.4 hPa | 1.27 mm | 2.24 m/s, 359° | 0 W/m² | - |
| 1778037638 | 10° C | 99% | 1008 hPa | 1.27 mm | 0.45 m/s, 350° | 0 W/m² | - |
| 1778037336 | 10° C | 99% | 1007.9 hPa | 0 mm | 0.45 m/s, 31° | 0 W/m² | - |
| 1778037033 | 10° C | 99% | 1007.9 hPa | 0 mm | 0.45 m/s, 40° | 0 W/m² | - |
| 1778036731 | 10° C | 99% | 1008 hPa | 0 mm | 0.89 m/s, 93° | 0 W/m² | - |
| 1778036428 | 10° C | 99% | 1007.9 hPa | 1.78 mm | 1.34 m/s, 32° | 0 W/m² | - |
| 1778036125 | 10° C | 99% | 1008 hPa | 1.78 mm | 1.34 m/s, 27° | 0 W/m² | - |
| 1778035821 | 10° C | 99% | 1008.1 hPa | 1.27 mm | 0 m/s | 0 W/m² | - |
| 1778035518 | 10° C | 99% | 1008.2 hPa | 3.05 mm | 0.89 m/s, 64° | 0 W/m² | - |
| 1778035214 | 10.56° C | 99% | 1008.3 hPa | 1.78 mm | 0.89 m/s, 42° | 0 W/m² | - |
| 1778034910 | 10.56° C | 99% | 1008.2 hPa | 1.27 mm | 0.45 m/s, 74° | 0 W/m² | - |
| 1778034608 | 10.56° C | 99% | 1008 hPa | 4.32 mm | 0.45 m/s, 33° | 0 W/m² | - |
| 1778034306 | 10.56° C | 99% | 1007.7 hPa | 3.05 mm | 0 m/s | 0 W/m² | - |
| 1778034003 | 10.56° C | 99% | 1007.6 hPa | 0 mm | 2.24 m/s, 309° | 0 W/m² | - |
| 1778033700 | 10.56° C | 99% | 1007.5 hPa | 0 mm | 0 m/s | 0 W/m² | - |
| 1778033397 | 10.56° C | 99% | 1007.5 hPa | 0 mm | 0 m/s | 0 W/m² | - |
| 1778033095 | 10.56° C | 99% | 1007.6 hPa | 0 mm | 0.45 m/s, 49° | 0 W/m² | - |
| 1778032791 | 10.56° C | 99% | 1007.5 hPa | 0 mm | 0 m/s | 0 W/m² | - |
| 1778032489 | 10.56° C | 99% | 1007.3 hPa | 0 mm | 0 m/s | 0 W/m² | - |
| 1778032186 | 10.56° C | 99% | 1007.3 hPa | 0 mm | 0 m/s | 0 W/m² | - |
| 1778031883 | 10.56° C | 99% | 1006.6 hPa | 3.56 mm | 0.45 m/s, 43° | 0 W/m² | - |
* Rain latest hour (hover to see other rain measurements)
** Current wind speed in m/s (hover to see current wind gust speed)